Time;durP1;ratioP1;P1;durP2;ratioP2;P2;SDS_P1;SDS_P2;PMS_P1;PMS_P2;Temp;Humidity;BMP_temperature;BMP_pressure;BME280_temperature;BME280_humidity;BME280_pressure;Samples;Min_cycle;Max_cycle;Signal;HPM_P1;HPM_P2
2022/10/16 00:02:18;;;;;;;0.60;0.43;;;;;;;;;;20834392;28;20840;-83
2022/10/16 00:12:19;;;;;;;1.17;0.50;;;;;;;;;;20831014;28;20207;-82
2022/10/16 00:22:21;;;;;;;1.00;0.40;;;;;;;;;;20800203;28;20223;-83
2022/10/16 00:32:26;;;;;;;0.40;0.30;;;;;;;;;;20797663;28;20238;-84
2022/10/16 00:42:27;;;;;;;0.63;0.40;;;;;;;;;;20798025;28;20281;-83
2022/10/16 00:52:29;;;;;;;0.93;0.40;;;;;;;;;;20781382;28;20214;-83
2022/10/16 01:02:31;;;;;;;0.93;0.50;;;;;;;;;;20781090;28;20235;-84
2022/10/16 01:12:41;;;;;;;0.93;0.40;;;;;;;;;;20832547;28;20246;-85
2022/10/16 01:22:43;;;;;;;0.33;0.33;;;;;;;;;;20794886;28;20218;-85
2022/10/16 01:32:56;;;;;;;0.70;0.40;;;16.50;99.90;;;;;;20810089;28;20292;-85
2022/10/16 01:43:08;;;;;;;1.13;0.40;;;16.60;99.90;;;;;;20821378;28;20229;-85
2022/10/16 01:53:13;;;;;;;0.40;0.33;;;16.50;99.90;;;;;;20843468;28;20218;-85
2022/10/16 02:03:18;;;;;;;1.07;0.50;;;16.50;99.90;;;;;;20777399;28;20218;-85
2022/10/16 02:13:24;;;;;;;0.93;0.20;;;;;;;;;;20775911;28;20346;-84
2022/10/16 02:23:38;;;;;;;0.73;0.50;;;;;;;;;;20806829;28;20249;-85
2022/10/16 02:33:42;;;;;;;1.17;0.40;;;;;;;;;;20808950;28;20210;-85
2022/10/16 02:43:44;;;;;;;0.77;0.50;;;;;;;;;;20806503;28;20222;-83
2022/10/16 02:53:46;;;;;;;0.60;0.40;;;;;;;;;;20779875;28;20214;-84
2022/10/16 03:03:48;;;;;;;0.43;0.40;;;;;;;;;;20805374;28;20226;-85
2022/10/16 03:13:50;;;;;;;0.83;0.50;;;;;;;;;;20821705;28;20199;-85
2022/10/16 03:23:51;;;;;;;0.53;0.40;;;;;;;;;;20804305;28;20223;-85
2022/10/16 03:33:53;;;;;;;0.93;0.43;;;;;;;;;;20804752;28;20230;-85
2022/10/16 03:43:55;;;;;;;0.40;0.30;;;;;;;;;;20788550;28;20719;-84
2022/10/16 03:53:57;;;;;;;0.70;0.40;;;;;;;;;;20840104;28;20214;-84
2022/10/16 04:03:59;;;;;;;0.73;0.40;;;;;;;;;;20801371;28;20222;-83
2022/10/16 04:14:01;;;;;;;0.40;0.40;;;;;;;;;;20820141;28;20237;-83
2022/10/16 04:24:03;;;;;;;0.60;0.50;;;;;;;;;;20780692;28;20374;-84
2022/10/16 04:34:05;;;;;;;0.97;0.50;;;;;;;;;;20774707;28;20235;-85
2022/10/16 04:44:07;;;;;;;14.57;6.00;;;;;;;;;;20699934;28;20226;-83
2022/10/16 04:54:09;;;;;;;21.37;10.57;;;16.10;99.90;;;;;;20747882;28;20200;-81
2022/10/16 05:04:11;;;;;;;19.87;8.60;;;;;;;;;;20730444;28;20275;-83
2022/10/16 05:14:13;;;;;;;1.37;0.70;;;;;;;;;;20713911;28;20712;-82
2022/10/16 05:24:14;;;;;;;1.00;0.50;;;;;;;;;;20713063;28;20235;-83
2022/10/16 05:34:16;;;;;;;1.80;0.67;;;;;;;;;;20739274;28;20211;-82
2022/10/16 05:44:18;;;;;;;4.40;0.70;;;;;;;;;;20750757;28;20230;-81
2022/10/16 05:54:20;;;;;;;1.23;0.67;;;;;;;;;;20746126;28;20273;-82
2022/10/16 06:04:21;;;;;;;1.00;0.60;;;;;;;;;;20721101;28;20785;-83
2022/10/16 06:14:23;;;;;;;0.50;0.33;;;;;;;;;;20772924;28;20210;-83
2022/10/16 06:24:25;;;;;;;4.03;1.33;;;16.10;99.90;;;;;;20755370;28;20222;-84
2022/10/16 06:34:27;;;;;;;1.10;0.73;;;;;;;;;;20829791;28;20284;-83
2022/10/16 06:44:28;;;;;;;1.00;0.60;;;;;;;;;;20806720;28;20234;-82
2022/10/16 06:54:30;;;;;;;0.37;0.37;;;;;;;;;;20790603;28;20296;-82
2022/10/16 07:04:32;;;;;;;0.70;0.60;;;;;;;;;;20805563;28;20215;-84
2022/10/16 07:14:33;;;;;;;0.80;0.60;;;;;;;;;;20805116;28;20241;-82
2022/10/16 07:24:35;;;;;;;2.30;0.60;;;;;;;;;;20820724;28;20712;-83
2022/10/16 07:34:38;;;;;;;1.83;0.80;;;;;;;;;;20807520;28;20284;-84
2022/10/16 07:44:40;;;;;;;0.90;0.40;;;;;;;;;;20786653;28;20280;-83
2022/10/16 07:54:42;;;;;;;0.80;0.47;;;;;;;;;;20836607;28;20277;-84
2022/10/16 08:04:47;;;;;;;2.03;0.87;;;;;;;;;;20785953;28;20230;-84
2022/10/16 08:14:58;;;;;;;1.23;0.73;;;;;;;;;;20802539;28;20206;-84
2022/10/16 08:24:59;;;;;;;3.90;1.87;;;;;;;;;;20780741;28;20230;-83
2022/10/16 08:35:01;;;;;;;1.70;1.03;;;;;;;;;;20820754;28;20257;-83
2022/10/16 08:45:10;;;;;;;1.20;0.80;;;;;;;;;;20783877;28;20219;-84
2022/10/16 08:55:36;;;;;;;1.87;1.00;;;;;;;;;;20794387;28;20219;-83
2022/10/16 09:05:45;;;;;;;1.07;0.77;;;;;;;;;;20799626;23;20746;-70
2022/10/16 09:15:47;;;;;;;1.63;0.80;;;;;;;;;;20866121;28;20217;-69
2022/10/16 09:25:49;;;;;;;1.27;1.00;;;17.60;99.90;;;;;;20864306;28;20221;-70
2022/10/16 09:35:53;;;;;;;1.50;0.63;;;;;;;;;;20838603;28;20211;-69
2022/10/16 09:45:55;;;;;;;1.63;0.80;;;;;;;;;;20850759;28;20688;-68
2022/10/16 09:55:58;;;;;;;0.97;0.70;;;;;;;;;;20854641;28;20221;-68
2022/10/16 10:06:01;;;;;;;0.80;0.57;;;;;;;;;;20828917;28;20232;-68
2022/10/16 10:16:04;;;;;;;1.00;0.50;;;;;;;;;;20873770;28;20249;-68
2022/10/16 10:26:16;;;;;;;2.67;0.60;;;;;;;;;;20826710;28;20220;-70
2022/10/16 10:36:35;;;;;;;0.57;0.40;;;;;;;;;;20856589;28;20215;-67
2022/10/16 10:46:51;;;;;;;1.20;0.70;;;;;;;;;;20863619;28;20230;-67
2022/10/16 10:57:14;;;;;;;1.53;0.60;;;;;;;;;;20850531;28;20211;-70
2022/10/16 11:07:27;;;;;;;0.60;0.50;;;;;;;;;;20797028;28;20292;-67
2022/10/16 11:17:36;;;;;;;1.07;0.50;;;;;;;;;;20808724;28;20217;-68
2022/10/16 11:27:48;;;;;;;0.60;0.50;;;;;;;;;;20823603;28;20225;-70
2022/10/16 11:37:52;;;;;;;0.90;0.50;;;;;;;;;;20894564;28;20221;-69
2022/10/16 11:48:00;;;;;;;1.27;0.60;;;;;;;;;;20870008;28;20287;-68
2022/10/16 11:58:22;;;;;;;0.90;0.53;;;;;;;;;;20910493;28;20347;-68
2022/10/16 12:08:25;;;;;;;0.80;0.50;;;;;;;;;;20850847;28;20223;-69
2022/10/16 12:18:28;;;;;;;1.20;0.77;;;19.60;99.90;;;;;;20877070;28;20217;-71
2022/10/16 12:28:36;;;;;;;0.90;0.60;;;19.40;99.90;;;;;;20891808;28;20233;-67
2022/10/16 12:38:50;;;;;;;0.57;0.57;;;;;;;;;;20941559;28;20228;-68
2022/10/16 12:48:52;;;;;;;1.10;0.50;;;;;;;;;;20873502;28;20224;-68
2022/10/16 12:59:19;;;;;;;1.03;0.63;;;19.30;99.90;;;;;;20854674;28;20703;-68
2022/10/16 13:09:46;;;;;;;1.43;0.90;;;19.30;99.90;;;;;;20855123;28;20270;-67
2022/10/16 13:19:48;;;;;;;3.03;0.50;;;;;;;;;;20870640;28;20721;-68
2022/10/16 13:30:00;;;;;;;0.87;0.50;;;19.10;99.90;;;;;;20853962;28;20220;-68
2022/10/16 13:40:20;;;;;;;1.00;0.60;;;;;;;;;;20852616;28;20220;-68
2022/10/16 13:50:22;;;;;;;1.80;1.17;;;;;;;;;;20851892;28;20262;-68
2022/10/16 14:00:29;;;;;;;1.70;1.03;;;;;;;;;;20867494;28;20229;-68
2022/10/16 14:10:33;;;;;;;3.77;1.40;;;19.00;99.90;;;;;;20866778;28;20267;-69
2022/10/16 14:20:35;;;;;;;0.97;0.70;;;;;;;;;;20862668;28;20626;-68
2022/10/16 14:30:37;;;;;;;1.77;0.60;;;;;;;;;;20924910;28;20805;-67
2022/10/16 14:40:39;;;;;;;1.47;0.70;;;;;;;;;;21061056;22;20608;-69
2022/10/16 14:50:40;;;;;;;3.33;0.70;;;;;;;;;;20937932;28;20208;-68
2022/10/16 15:00:43;;;;;;;1.23;0.73;;;;;;;;;;20982071;28;20235;-68
2022/10/16 15:10:44;;;;;;;1.13;0.70;;;;;;;;;;20952658;28;20219;-69
2022/10/16 15:20:50;;;;;;;1.90;0.70;;;;;;;;;;20941291;28;20231;-69
2022/10/16 15:30:53;;;;;;;1.50;0.80;;;;;;;;;;20975372;28;20215;-68
2022/10/16 15:40:55;;;;;;;2.50;0.70;;;;;;;;;;20941283;28;20216;-69
2022/10/16 15:50:57;;;;;;;1.10;0.70;;;;;;;;;;20873672;28;20228;-68
2022/10/16 16:01:01;;;;;;;2.43;0.90;;;19.10;99.90;;;;;;20944438;28;20281;-68
2022/10/16 16:11:05;;;;;;;3.90;1.00;;;;;;;;;;20940506;28;20684;-68
2022/10/16 16:21:07;;;;;;;1.23;0.80;;;;;;;;;;20900524;28;20216;-69
2022/10/16 16:31:09;;;;;;;2.10;0.80;;;;;;;;;;20867067;28;20217;-69
2022/10/16 16:41:19;;;;;;;0.97;0.70;;;18.80;99.90;;;;;;20881975;28;20239;-69
2022/10/16 16:51:21;;;;;;;1.37;0.60;;;18.60;99.90;;;;;;20945074;28;20215;-69
2022/10/16 17:01:25;;;;;;;1.20;0.90;;;;;;;;;;20983615;28;20280;-70
2022/10/16 17:11:27;;;;;;;1.80;1.03;;;;;;;;;;20962069;28;20378;-69
2022/10/16 17:21:31;;;;;;;1.50;0.90;;;;;;;;;;20963827;28;20284;-69
2022/10/16 17:31:35;;;;;;;4.20;1.20;;;;;;;;;;20937082;28;20288;-69
2022/10/16 17:41:37;;;;;;;2.13;1.10;;;;;;;;;;20949938;28;20215;-69
2022/10/16 17:51:39;;;;;;;0.87;0.70;;;;;;;;;;20917670;28;20579;-69
2022/10/16 18:01:43;;;;;;;3.47;1.03;;;;;;;;;;20933692;28;20217;-69
2022/10/16 18:11:45;;;;;;;3.07;0.90;;;;;;;;;;20930800;28;20284;-69
2022/10/16 18:21:48;;;;;;;1.83;0.90;;;;;;;;;;20947078;28;20283;-69
2022/10/16 18:31:50;;;;;;;2.20;1.17;;;;;;;;;;20907730;28;20244;-69
2022/10/16 18:41:58;;;;;;;3.50;1.17;;;;;;;;;;20958151;28;20230;-69
2022/10/16 18:52:02;;;;;;;1.47;0.90;;;;;;;;;;20940623;28;20597;-69
2022/10/16 19:02:06;;;;;;;1.47;0.90;;;;;;;;;;20949400;28;20294;-69
2022/10/16 19:12:08;;;;;;;2.23;0.87;;;;;;;;;;20965391;28;20218;-69
2022/10/16 19:22:13;;;;;;;1.93;1.10;;;;;;;;;;20980144;28;20284;-69
2022/10/16 19:32:15;;;;;;;3.67;1.00;;;;;;;;;;20941497;28;20255;-69
2022/10/16 19:42:17;;;;;;;2.63;1.07;;;;;;;;;;20941569;28;20225;-70
2022/10/16 19:52:21;;;;;;;1.77;1.10;;;;;;;;;;20939784;28;20221;-70
2022/10/16 20:02:23;;;;;;;1.77;0.90;;;;;;;;;;20968680;28;20264;-69
2022/10/16 20:12:25;;;;;;;2.53;1.10;;;;;;;;;;20939959;28;20763;-70
2022/10/16 20:22:27;;;;;;;2.13;1.30;;;;;;;;;;20921118;28;20318;-69
2022/10/16 20:32:29;;;;;;;5.97;1.63;;;;;;;;;;20927889;28;20208;-69
2022/10/16 20:42:31;;;;;;;1.50;1.10;;;;;;;;;;20934876;28;20219;-70
2022/10/16 20:52:33;;;;;;;2.23;1.23;;;;;;;;;;20926121;22;20631;-77
2022/10/16 21:02:35;;;;;;;2.20;1.30;;;;;;;;;;20945704;28;20214;-76
2022/10/16 21:12:37;;;;;;;1.47;1.03;;;;;;;;;;20973341;28;20225;-77
2022/10/16 21:22:39;;;;;;;1.97;1.20;;;;;;;;;;20964544;28;20302;-77
2022/10/16 21:32:40;;;;;;;2.73;1.13;;;;;;;;;;20964792;28;20287;-76
2022/10/16 21:42:42;;;;;;;2.33;1.40;;;;;;;;;;20985963;28;20221;-77
2022/10/16 21:52:44;;;;;;;1.30;0.93;;;;;;;;;;20955812;28;20273;-76
2022/10/16 22:02:46;;;;;;;1.00;0.80;;;;;;;;;;20963866;28;20233;-77
2022/10/16 22:12:48;;;;;;;4.30;1.00;;;;;;;;;;20975586;28;20243;-77
2022/10/16 22:22:50;;;;;;;2.87;0.90;;;;;;;;;;20984419;28;20226;-77
2022/10/16 22:32:52;;;;;;;1.50;0.80;;;;;;;;;;20980413;28;20226;-77
2022/10/16 22:42:53;;;;;;;1.10;0.70;;;;;;;;;;20965949;28;20225;-77
2022/10/16 22:52:56;;;;;;;1.37;0.80;;;;;;;;;;20983860;28;20255;-77
2022/10/16 23:02:58;;;;;;;1.67;0.80;;;;;;;;;;20981654;28;20229;-77
2022/10/16 23:12:59;;;;;;;1.27;0.70;;;;;;;;;;20958027;28;20520;-77
2022/10/16 23:23:01;;;;;;;1.20;0.80;;;;;;;;;;20913057;28;20287;-76
2022/10/16 23:33:03;;;;;;;0.90;0.60;;;;;;;;;;20893848;28;20217;-75
2022/10/16 23:43:04;;;;;;;2.60;1.10;;;;;;;;;;20911700;28;20219;-77
2022/10/16 23:53:06;;;;;;;2.00;0.90;;;;;;;;;;20912072;28;20271;-77
